Nearby METAR Reports

 

PAEN - Kenai, Alaska, USA
Distance from station: ESE 2mi, 4km
Updated: Tue, 19-Mar-2019 10:53am AKDT
Few Clouds
Few Clouds
 Wind from SSW
Wind: SSW 8 mph , 13 km/h
Temperature: 34°F , 1°C
Wind Chill: 27°F , -3°C
Dew Point: 23°F , -5°C
Humidity: 65%
Barometer: 29.94 inHg , 1013.9 hPa
Clouds: Few Clouds
Visibility: 10 miles , 16 km
Cloud details: Few Clouds 4700 ft
2019/03/19 18:53 PAEN 191853Z 20007KT 10SM FEW047 01/M05 A2994 RMK AO2 SLP142 T00061050
PASX - Soldotna, Alaska, USA
Distance from station: SE 12mi, 19km
Updated: Tue, 19-Mar-2019 10:56am AKDT
Clear
Clear
 Wind from WSW
Wind: WSW 7 mph , 11 km/h
Temperature: 34°F , 1°C
Wind Chill: 28°F , -2°C
Dew Point: 23°F , -5°C
Humidity: 65%
Barometer: 29.96 inHg , 1014.6 hPa
Clouds: Clear
Visibility: 10 miles , 16 km
2019/03/19 18:56 PASX 191856Z AUTO 25006KT 10SM CLR 01/M05 A2996 RMK AO2 SLP156 T00111050 FZRANO
 
PANC - Anchorage Intl, Alaska, USA
Distance from station: NE 59mi, 96km
Updated: Tue, 19-Mar-2019 10:53am AKDT
Mostly cloudy
Mostly cloudy
 Wind from E
Wind: E 5 mph , 7 km/h
Temperature: 36°F , 2°C
Wind Chill: 32°F , 0°C
Dew Point: 27°F , -3°C
Humidity: 70%
Barometer: 29.95 inHg , 1014.2 hPa
Clouds: Mostly cloudy
Visibility: 10 miles , 16 km
Cloud details: Partly cloudy 3800 ft
Mostly cloudy 6000 ft
2019/03/19 18:53 PANC 191853Z 08004KT 10SM SCT038 BKN060 02/M03 A2995 RMK AO2 SLP143 T00171028
PALH - Anchorage/Lake H, Alaska, USA
Distance from station: NE 61mi, 99km
Updated: Tue, 19-Mar-2019 10:53am AKDT
Overcast
Overcast
 Wind from ESE
Wind: ESE 3 mph , 6 km/h
Temperature: 34°F , 1°C
Dew Point: 25°F , -4°C
Humidity: 70%
Barometer: 29.96 inHg , 1014.6 hPa
Clouds: Overcast
Visibility: 10 miles , 16 km
Cloud details: Overcast 3900 ft
2019/03/19 18:53 PALH 191853Z 12003KT 10SM OVC039 01/M04 A2996 RMK AO2 SLP145 T00111039
 
PAHO - Homer, Alaska, USA
Distance from station: S 66mi, 106km
Updated: Tue, 19-Mar-2019 10:53am AKDT
Clear
Clear
 Wind from SW
Wind: SW 7 mph , 11 km/h
Temperature: 37°F , 3°C
Wind Chill: 32°F , 0°C
Dew Point: 21°F , -6°C
Humidity: 52%
Barometer: 29.94 inHg , 1013.9 hPa
Clouds: Clear
Visibility: 10 miles , 16 km
2019/03/19 18:53 PAHO 191853Z 23006KT 10SM CLR 03/M06 A2994 RMK AO2 SLP138 T00281061
PAMR - Anchorage/Merril, Alaska, USA
Distance from station: NE 66mi, 106km
Updated: Tue, 19-Mar-2019 10:53am AKDT
Overcast
Overcast
 Wind from SSE
Wind: SSE 3 mph , 6 km/h
Temperature: 34°F , 1°C
Dew Point: 23°F , -5°C
Humidity: 65%
Barometer: 29.95 inHg , 1014.2 hPa
Clouds: Overcast
Visibility: 10 miles , 16 km
Cloud details: Overcast 3900 ft
2019/03/19 18:53 PAMR 191853Z 16003KT 10SM OVC039 01/M05 A2995 RMK AO2 SLP144 T00111050
 
PAED - Elmendorf Afb, Alaska, USA
Distance from station: NE 69mi, 110km
Updated: Tue, 19-Mar-2019 10:56am AKDT
Mostly cloudy
Mostly cloudy
 Wind from calm
Wind: Calm
Temperature: 34°F , 1°C
Dew Point: 27°F , -3°C
Humidity: 75%
Barometer: 29.95 inHg , 1014.2 hPa
Clouds: Mostly cloudy
Visibility: 10 miles , 16 km
Cloud details: Mostly cloudy 3700 ft
2019/03/19 18:56 PAED 191856Z 00000KT 10SM BKN037 01/M03 A2995 RMK AO2A SLP139 T00121033
PAWD - Seward, Alaska, USA
Distance from station: ESE 71mi, 115km
Updated: Tue, 19-Mar-2019 10:53am AKDT
Overcast
Overcast
 Wind from calm
Wind: Calm
Temperature: 37°F , 3°C
Dew Point: 34°F , 1°C
Humidity: 87%
Barometer: 29.94 inHg , 1013.9 hPa
Clouds: Overcast
Visibility: 10 miles , 16 km
Cloud details: Overcast 4800 ft
2019/03/19 18:53 PAWD 191853Z AUTO 00000KT 10SM OVC048 03/01 A2994 RMK AO2 SLP138 T00280006 TSNO
 
PASC - Deadhorse, Alaska, USA
Distance from station: ENE 670mi, 1078km
Updated: Tue, 19-Mar-2019 10:56am AKDT
Light snow, Freezing, Fog, Overcast
Light snow, Freezing, Fog, Overcast
 Wind from N
Wind: N 12 mph , 19 km/h
Temperature: 3°F , -16°C
Wind Chill: -14°F , -26°C
Dew Point: -2°F , -19°C
Humidity: 78%
Barometer: 29.67 inHg , 1004.7 hPa
Summary: Light snow, Freezing, Fog
Clouds: Overcast
Visibility: 1/4 mile , 0.4 km
Cloud details: Overcast 700 ft
2019/03/19 18:56 PASC 191856Z 36010KT 1/4SM R06/2200V2600FT -SN FZFG VV007 M16/M19 A2967 RMK AO2 P0000 T11611194 $
PAAD - Point Thomson, Alaska, USA
Distance from station: ENE 680mi, 1094km
Updated: Tue, 19-Mar-2019 10:55am AKDT
Overcast
Overcast
 Wind from N
Wind: N 13 mph , 20 km/h
Temperature: 7°F , -14°C
Wind Chill: -9°F , -23°C
Dew Point: 1°F , -17°C
Humidity: 78%
Barometer: 29.64 inHg , 1003.7 hPa
Clouds: Overcast
Visibility: 10 miles , 16 km
Cloud details: Overcast 1300 ft
2019/03/19 18:55 PAAD 191855Z AUTO 01011KT 10SM OVC013 M14/M17 A2964 RMK AO2 T11421167


kenaipeople.com website

Dans Automotive

Lower Peninsula Power Sports

Freddies RoadHouse

Alaska Weather Net